Time;durP1;ratioP1;P1;durP2;ratioP2;P2;SDS_P1;SDS_P2;PMS_P1;PMS_P2;Temp;Humidity;BMP_temperature;BMP_pressure;BME280_temperature;BME280_humidity;BME280_pressure;Samples;Min_cycle;Max_cycle;Signal;HPM_P1;HPM_P2
2023/12/16 00:01:01;;;;;;;1999.90;999.90;;;;;;;0.58;99.05;97312.44;5094890;28;20077;-63
2023/12/16 00:03:38;;;;;;;1999.90;999.90;;;;;;;0.58;98.49;97315.00;5094745;28;20462;-62
2023/12/16 00:06:12;;;;;;;1999.90;999.90;;;;;;;0.56;98.45;97319.25;5094724;28;20094;-61
2023/12/16 00:08:39;;;;;;;1999.90;999.90;;;;;;;0.54;99.14;97313.19;5094515;28;20066;-60
2023/12/16 00:11:07;;;;;;;1999.90;999.90;;;;;;;0.53;99.14;97321.78;5094851;28;20105;-63
2023/12/16 00:13:37;;;;;;;1999.90;999.90;;;;;;;0.50;99.20;97316.59;5094500;28;20056;-62
2023/12/16 00:16:05;;;;;;;1999.90;999.90;;;;;;;0.49;99.62;97320.84;5094492;28;20048;-64
2023/12/16 00:18:33;;;;;;;1999.90;999.90;;;;;;;0.49;99.32;97333.72;5094292;28;20417;-63
2023/12/16 00:21:01;;;;;;;1999.90;999.90;;;;;;;0.49;99.73;97330.31;5094342;28;20055;-62
2023/12/16 00:23:30;;;;;;;1999.90;999.90;;;;;;;0.49;99.95;97330.31;5094439;28;20048;-61
2023/12/16 00:25:58;;;;;;;1999.90;999.90;;;;;;;0.59;99.70;97339.03;5094424;28;20059;-61
2023/12/16 00:28:26;;;;;;;1999.90;999.90;;;;;;;0.68;99.31;97346.88;5094255;28;20063;-62
2023/12/16 00:30:55;;;;;;;1999.90;999.90;;;;;;;0.70;98.92;97334.91;5093958;28;20055;-63
2023/12/16 00:33:23;;;;;;;1999.90;999.90;;;;;;;0.71;98.18;97344.38;5094058;28;20040;-61
2023/12/16 00:35:53;;;;;;;1999.90;999.90;;;;;;;0.63;98.10;97343.38;5094094;28;20448;-64
2023/12/16 00:38:23;;;;;;;1999.90;999.90;;;;;;;0.60;98.59;97348.50;5094244;28;20051;-61
2023/12/16 00:40:53;;;;;;;;;;;;;;;0.55;98.62;97347.56;5094304;28;20044;-64
2023/12/16 00:43:24;;;;;;;1999.90;999.90;;;;;;;0.46;98.88;97349.16;5093863;28;19920;-63
2023/12/16 00:45:56;;;;;;;1999.90;999.90;;;;;;;0.47;99.37;97353.47;5094054;28;20532;-62
2023/12/16 00:48:25;;;;;;;1999.90;999.90;;;;;;;0.47;99.18;97345.75;5093661;28;20555;-60
2023/12/16 00:50:54;;;;;;;1999.90;999.90;;;;;;;0.42;99.50;97344.78;5093710;28;20052;-63
2023/12/16 00:53:23;;;;;;;1999.90;999.90;;;;;;;0.40;99.73;97348.19;5094113;28;20043;-62
2023/12/16 00:55:54;;;;;;;1999.90;999.90;;;;;;;0.38;99.82;97353.31;5093883;28;20176;-63
2023/12/16 00:58:21;;;;;;;;;;;;;;;0.38;100.00;97355.88;5094114;28;20040;-61
2023/12/16 01:00:51;;;;;;;1999.90;999.90;;;;;;;0.33;100.00;97352.38;5093457;28;19920;-63
2023/12/16 01:03:21;;;;;;;1999.90;999.90;;;;;;;0.38;100.00;97353.31;5093541;28;20076;-62
2023/12/16 01:05:51;;;;;;;1999.90;999.90;;;;;;;0.35;100.00;97358.41;5093247;28;20139;-61
2023/12/16 01:08:23;;;;;;;1999.90;999.90;;;;;;;0.33;100.00;97357.53;5093460;28;20549;-60
2023/12/16 01:10:55;;;;;;;1999.90;999.90;;;;;;;0.30;100.00;97353.19;5093546;28;20044;-61
2023/12/16 01:13:23;;;;;;;1999.90;999.90;;;;;;;0.27;100.00;97355.72;5093438;28;20051;-63
2023/12/16 01:15:54;;;;;;;1999.90;999.90;;;;;;;0.29;100.00;97358.31;5093395;28;20048;-60
2023/12/16 01:18:21;;;;;;;1999.90;999.90;;;;;;;0.29;100.00;97359.19;5093242;28;20466;-62
2023/12/16 01:20:50;;;;;;;1999.90;999.90;;;;;;;0.32;100.00;97359.22;5093410;28;20109;-63
2023/12/16 01:23:23;;;;;;;1999.90;999.90;;;;;;;0.33;100.00;97354.97;5093215;28;20040;-63
2023/12/16 01:25:52;;;;;;;1999.90;999.90;;;;;;;0.33;100.00;97353.22;5093196;28;20095;-63
2023/12/16 01:28:22;;;;;;;1999.90;999.90;;;;;;;0.32;100.00;97353.22;5093392;28;20048;-59
2023/12/16 01:30:49;;;;;;;1999.90;999.90;;;;;;;0.33;100.00;97360.97;5093069;28;20052;-60
2023/12/16 01:33:19;;;;;;;1999.90;999.90;;;;;;;0.34;100.00;97360.13;5093142;28;20374;-62
2023/12/16 01:35:49;;;;;;;1999.90;999.90;;;;;;;0.36;100.00;97363.59;5093188;28;20555;-60
2023/12/16 01:38:17;;;;;;;1999.90;999.90;;;;;;;0.32;99.95;97371.22;5093152;28;20485;-62
2023/12/16 01:40:46;;;;;;;1999.90;999.90;;;;;;;0.32;100.00;97368.66;5093281;28;20505;-62
2023/12/16 01:43:16;;;;;;;1999.90;999.90;;;;;;;0.30;100.00;97362.63;5093170;28;20059;-60
2023/12/16 01:45:44;;;;;;;1999.90;999.90;;;;;;;0.35;100.00;97364.44;5093163;28;20048;-60
2023/12/16 01:48:16;;;;;;;1999.90;999.90;;;;;;;0.31;99.91;97367.81;5092882;28;20051;-63
2023/12/16 01:50:48;;;;;;;1999.90;999.90;;;;;;;0.34;100.00;97377.28;5092910;28;20047;-61
2023/12/16 01:53:19;;;;;;;1999.90;999.90;;;;;;;0.27;100.00;97373.72;5093137;28;20048;-60
2023/12/16 01:55:47;;;;;;;1999.90;999.90;;;;;;;0.29;100.00;97369.47;5092982;28;20044;-61
2023/12/16 01:58:19;;;;;;;1999.90;999.90;;;;;;;0.33;100.00;97376.41;5093044;28;20118;-61
2023/12/16 02:00:49;;;;;;;1999.90;999.90;;;;;;;0.37;100.00;97367.03;5092836;28;20455;-62
2023/12/16 02:03:19;;;;;;;1999.90;999.90;;;;;;;0.37;100.00;97373.03;5092987;28;20040;-60
2023/12/16 02:05:50;;;;;;;1999.90;999.90;;;;;;;0.43;99.98;97373.97;5092917;28;20478;-62
2023/12/16 02:08:19;;;;;;;1999.90;999.90;;;;;;;0.45;98.98;97377.47;5094735;28;20044;-63
2023/12/16 02:10:46;;;;;;;1999.90;999.90;;;;;;;0.41;99.31;97371.38;5096899;28;20047;-61
2023/12/16 02:13:18;;;;;;;1999.90;999.90;;;;;;;0.39;99.66;97372.22;5096763;28;20048;-62
2023/12/16 02:15:49;;;;;;;1999.90;999.90;;;;;;;0.36;99.23;97378.19;5096763;28;20101;-60
2023/12/16 02:18:17;;;;;;;;;;;;;;;0.33;99.40;97376.41;5097144;28;20055;-60
2023/12/16 02:20:46;;;;;;;1999.90;999.90;;;;;;;0.27;100.00;97370.31;5096777;28;20445;-60
2023/12/16 02:23:18;;;;;;;1999.90;999.90;;;;;;;0.27;100.00;97376.31;5096694;28;20131;-62
2023/12/16 02:25:46;;;;;;;1999.90;999.90;;;;;;;0.16;100.00;97363.28;5096416;28;20048;-59
2023/12/16 02:28:14;;;;;;;1999.90;999.90;;;;;;;0.22;100.00;97381.41;5096545;28;20040;-62
2023/12/16 02:30:43;;;;;;;1999.90;999.90;;;;;;;0.22;100.00;97380.53;5096266;28;20135;-62
2023/12/16 02:33:11;;;;;;;1999.90;999.90;;;;;;;0.21;100.00;97382.22;5096479;28;20048;-62
2023/12/16 02:35:42;;;;;;;1999.90;999.90;;;;;;;0.19;100.00;97383.91;5096461;28;20044;-60
2023/12/16 02:38:09;;;;;;;;;;;;;;;0.14;100.00;97375.25;5096812;28;20048;-61
2023/12/16 02:40:42;;;;;;;1999.90;999.90;;;;;;;0.13;100.00;97378.66;5096289;28;20328;-61
2023/12/16 02:43:10;;;;;;;1999.90;999.90;;;;;;;0.13;100.00;97394.09;5096136;28;20056;-61
2023/12/16 02:45:40;;;;;;;1999.90;999.90;;;;;;;0.14;100.00;97393.25;5096067;28;20048;-62
2023/12/16 02:48:08;;;;;;;1999.90;999.90;;;;;;;0.14;100.00;97400.97;5096082;28;20052;-61
2023/12/16 02:50:36;;;;;;;1999.90;999.90;;;;;;;0.14;100.00;97405.25;5096037;28;20040;-62
2023/12/16 02:53:03;;;;;;;1999.90;999.90;;;;;;;0.15;100.00;97405.28;5096039;28;20048;-62
2023/12/16 02:55:31;;;;;;;1999.90;999.90;;;;;;;0.15;100.00;97407.84;5095939;28;20056;-60
2023/12/16 02:58:00;;;;;;;1999.90;999.90;;;;;;;0.16;100.00;97417.31;5095949;28;20233;-59
2023/12/16 03:00:28;;;;;;;1999.90;999.90;;;;;;;0.12;100.00;97413.81;5095538;28;20056;-61
2023/12/16 03:02:56;;;;;;;1999.90;999.90;;;;;;;0.12;100.00;97413.81;5095913;28;20185;-60
2023/12/16 03:05:23;;;;;;;1999.90;999.90;;;;;;;0.05;100.00;97416.25;5095876;28;20052;-59
2023/12/16 03:07:51;;;;;;;1999.90;999.90;;;;;;;0.06;100.00;97416.28;5096054;28;20086;-59
2023/12/16 03:10:18;;;;;;;1999.90;999.90;;;;;;;0.07;100.00;97418.03;5095567;28;20563;-62
2023/12/16 03:12:46;;;;;;;1999.90;999.90;;;;;;;0.06;100.00;97420.56;5095651;28;20600;-62
2023/12/16 03:15:15;;;;;;;1999.90;999.90;;;;;;;0.07;100.00;97409.44;5095576;28;20044;-61
2023/12/16 03:17:43;;;;;;;1999.90;999.90;;;;;;;0.12;100.00;97424.09;5095600;28;20051;-62
2023/12/16 03:20:12;;;;;;;1999.90;999.90;;;;;;;0.20;100.00;97424.25;5094389;28;20079;-61
2023/12/16 03:22:40;;;;;;;1999.90;999.90;;;;;;;0.20;100.00;97433.66;5095559;28;20094;-60
2023/12/16 03:25:09;;;;;;;1999.90;999.90;;;;;;;0.19;100.00;97434.50;5095470;28;20047;-62
2023/12/16 03:27:37;;;;;;;1999.90;999.90;;;;;;;0.20;99.89;97441.38;5095341;28;20058;-60
2023/12/16 03:30:06;;;;;;;1999.90;999.90;;;;;;;0.21;100.00;97438.84;5095064;28;20048;-60
2023/12/16 03:32:36;;;;;;;1999.90;999.90;;;;;;;0.24;100.00;97438.06;5095380;28;20071;-62
2023/12/16 03:35:05;;;;;;;1999.90;999.90;;;;;;;0.30;100.00;97440.72;5095341;28;20738;-59
2023/12/16 03:37:33;;;;;;;1999.90;999.90;;;;;;;0.24;100.00;97440.63;5095111;28;20044;-62
2023/12/16 03:40:02;;;;;;;1999.90;999.90;;;;;;;0.19;100.00;97442.25;5095156;28;20074;-62
2023/12/16 03:42:30;;;;;;;1999.90;999.90;;;;;;;0.21;100.00;97448.28;5095090;28;20056;-62
2023/12/16 03:44:59;;;;;;;1999.90;999.90;;;;;;;0.17;100.00;97441.31;5095150;28;20044;-62
2023/12/16 03:47:28;;;;;;;1999.90;999.90;;;;;;;0.17;100.00;97449.94;5095146;28;20139;-61
2023/12/16 03:49:58;;;;;;;1999.90;999.90;;;;;;;0.23;100.00;97452.63;5095119;28;20048;-62
2023/12/16 03:52:30;;;;;;;1999.90;999.90;;;;;;;0.22;100.00;97456.03;5095022;28;20109;-59
2023/12/16 03:54:57;;;;;;;1999.90;999.90;;;;;;;0.20;100.00;97456.84;5094917;28;20491;-62
2023/12/16 03:57:25;;;;;;;1999.90;999.90;;;;;;;0.18;100.00;97471.41;5094980;28;20429;-60
2023/12/16 03:59:52;;;;;;;1999.90;999.90;;;;;;;0.19;100.00;97478.28;5094891;28;20052;-61
2023/12/16 04:02:20;;;;;;;1999.90;999.90;;;;;;;0.22;99.39;97468.91;5094787;28;20486;-59
2023/12/16 04:04:48;;;;;;;1999.90;999.90;;;;;;;0.11;99.52;97470.41;5094687;28;20055;-60
2023/12/16 04:07:17;;;;;;;1999.90;999.90;;;;;;;0.16;99.56;97478.22;5094630;28;20058;-61
2023/12/16 04:09:45;;;;;;;1999.90;999.90;;;;;;;0.15;99.51;97477.34;5094716;28;20047;-62
2023/12/16 04:12:13;;;;;;;1999.90;999.90;;;;;;;0.16;99.53;97480.78;5094572;28;20048;-61
2023/12/16 04:14:41;;;;;;;1999.90;999.90;;;;;;;0.14;98.54;97478.19;5094498;28;20052;-61
2023/12/16 04:17:10;;;;;;;1999.90;999.90;;;;;;;0.16;98.09;97488.50;5094417;28;20048;-60
2023/12/16 04:19:39;;;;;;;1999.90;999.90;;;;;;;0.15;97.75;97489.34;5094338;28;20043;-61
2023/12/16 04:22:06;;;;;;;1999.90;999.90;;;;;;;0.12;97.79;97496.16;5094290;28;20280;-62
2023/12/16 04:24:35;;;;;;;1999.90;999.90;;;;;;;0.16;98.44;97506.53;5094400;28;20051;-60
2023/12/16 04:27:02;;;;;;;1999.90;999.90;;;;;;;0.15;97.53;97515.94;5094225;28;20056;-62
2023/12/16 04:29:29;;;;;;;1999.90;999.90;;;;;;;0.15;97.36;97512.53;5093968;28;20044;-62
2023/12/16 04:31:56;;;;;;;1999.90;999.90;;;;;;;0.09;97.75;97506.41;5093788;28;20482;-59
2023/12/16 04:34:26;;;;;;;1999.90;999.90;;;;;;;0.07;98.00;97510.66;5094146;28;20548;-59
2023/12/16 04:36:57;;;;;;;1999.90;999.90;;;;;;;0.09;97.66;97515.84;5094066;28;20123;-60
2023/12/16 04:39:25;;;;;;;1999.90;999.90;;;;;;;0.12;97.59;97523.63;5094035;28;20409;-61
2023/12/16 04:41:55;;;;;;;1999.90;999.90;;;;;;;0.10;96.87;97525.28;5094035;28;20040;-62
2023/12/16 04:44:24;;;;;;;1999.90;999.90;;;;;;;0.13;97.41;97527.94;5093886;28;20046;-62
2023/12/16 04:46:52;;;;;;;1999.90;999.90;;;;;;;0.14;97.00;97536.50;5093784;28;20502;-62
2023/12/16 04:49:20;;;;;;;1999.90;999.90;;;;;;;0.16;96.99;97535.72;5093991;28;20056;-62
2023/12/16 04:51:47;;;;;;;1999.90;999.90;;;;;;;0.13;95.92;97530.50;5093752;28;20051;-61
2023/12/16 04:54:15;;;;;;;1999.90;999.90;;;;;;;0.15;96.49;97531.38;5093796;28;20080;-61
2023/12/16 04:56:43;;;;;;;1999.90;999.90;;;;;;;0.19;96.50;97540.94;5093733;28;20040;-62
2023/12/16 04:59:12;;;;;;;1999.90;999.90;;;;;;;0.21;96.94;97535.81;5093657;28;20094;-62
2023/12/16 05:01:39;;;;;;;1999.90;999.90;;;;;;;0.18;96.51;97544.31;5093639;28;20055;-60
2023/12/16 05:04:07;;;;;;;1999.90;999.90;;;;;;;0.25;95.88;97548.75;5093654;28;20494;-62
2023/12/16 05:06:35;;;;;;;1999.90;999.90;;;;;;;0.25;95.45;97546.16;5093727;28;20044;-60
2023/12/16 05:09:06;;;;;;;1999.90;999.90;;;;;;;0.24;95.06;97551.31;5093553;28;20055;-60
2023/12/16 05:11:34;;;;;;;1999.90;999.90;;;;;;;0.19;95.43;97546.06;5093571;28;20048;-59
2023/12/16 05:14:01;;;;;;;1999.90;999.90;;;;;;;0.13;95.68;97545.94;5093503;28;20047;-61
2023/12/16 05:16:29;;;;;;;1999.90;999.90;;;;;;;0.12;96.08;97546.78;5093468;28;20098;-61
2023/12/16 05:18:56;;;;;;;1999.90;999.90;;;;;;;0.15;95.97;97541.69;5093389;28;20083;-59
2023/12/16 05:21:23;;;;;;;1999.90;999.90;;;;;;;0.15;95.50;97544.25;5093504;28;20060;-61
2023/12/16 05:23:51;;;;;;;1999.90;999.90;;;;;;;0.16;96.10;97542.56;5093289;28;20050;-60
2023/12/16 05:26:20;;;;;;;1999.90;999.90;;;;;;;0.18;96.50;97553.75;5093224;28;20044;-62
2023/12/16 05:28:47;;;;;;;1999.90;999.90;;;;;;;0.18;95.85;97551.19;5093280;28;20071;-61
2023/12/16 05:31:14;;;;;;;1999.90;999.90;;;;;;;0.26;96.40;97544.47;5093169;28;20467;-61
2023/12/16 05:33:44;;;;;;;1999.90;999.90;;;;;;;0.31;95.83;97550.59;5093263;28;20054;-62
2023/12/16 05:36:11;;;;;;;1999.90;999.90;;;;;;;0.37;95.74;97558.41;5093263;28;20048;-60
2023/12/16 05:38:38;;;;;;;1999.90;999.90;;;;;;;0.45;95.52;97565.44;5093217;28;20052;-61
2023/12/16 05:41:06;;;;;;;1999.90;999.90;;;;;;;0.45;95.00;97563.69;5093158;28;20044;-61
2023/12/16 05:43:33;;;;;;;1999.90;999.90;;;;;;;0.46;95.05;97568.03;5092440;28;20048;-59
2023/12/16 05:46:00;;;;;;;1999.90;999.90;;;;;;;0.46;95.25;97565.47;5092913;28;20455;-61
2023/12/16 05:48:27;;;;;;;1999.90;999.90;;;;;;;0.48;94.58;97579.22;5093145;28;20125;-62
2023/12/16 05:50:57;;;;;;;1999.90;999.90;;;;;;;0.48;93.58;97575.78;5093227;28;20094;-62
2023/12/16 05:53:24;;;;;;;1999.90;999.90;;;;;;;0.52;92.27;97587.00;5093065;28;20079;-61
2023/12/16 05:55:51;;;;;;;1999.90;999.90;;;;;;;0.48;90.04;97586.09;5093170;28;20054;-60
2023/12/16 05:58:18;;;;;;;1999.90;999.90;;;;;;;0.52;91.20;97597.28;5092961;28;20098;-60
2023/12/16 06:00:45;;;;;;;1999.90;999.90;;;;;;;0.49;91.09;97592.97;5093096;28;20073;-60
2023/12/16 06:03:13;;;;;;;1999.90;999.90;;;;;;;0.49;90.13;97600.69;5093144;28;20048;-60
2023/12/16 06:05:40;;;;;;;1999.90;999.90;;;;;;;0.47;89.04;97603.25;5093091;28;20437;-60
2023/12/16 06:08:08;;;;;;;1999.90;999.90;;;;;;;0.42;90.25;97607.41;5092731;28;20148;-62
2023/12/16 06:10:35;;;;;;;1999.90;999.90;;;;;;;0.40;91.25;97611.69;5092818;28;20490;-61
2023/12/16 06:13:02;;;;;;;1999.90;999.90;;;;;;;0.43;91.36;97610.88;5092751;28;20097;-59
2023/12/16 06:15:29;;;;;;;1999.90;999.90;;;;;;;0.40;90.92;97616.84;5092743;28;20051;-62
2023/12/16 06:17:57;;;;;;;1999.90;999.90;;;;;;;0.40;90.64;97621.97;5092851;28;20055;-61
2023/12/16 06:20:24;;;;;;;1999.90;999.90;;;;;;;0.43;91.20;97624.63;5092823;28;20052;-62
2023/12/16 06:22:52;;;;;;;1999.90;999.90;;;;;;;0.44;91.09;97628.03;5092827;28;20097;-61
2023/12/16 06:25:20;;;;;;;1999.90;999.90;;;;;;;0.44;90.05;97628.03;5092735;28;20106;-62
2023/12/16 06:27:47;;;;;;;1999.90;999.90;;;;;;;0.45;89.54;97634.94;5092651;28;20623;-60
2023/12/16 06:30:16;;;;;;;1999.90;999.90;;;;;;;0.45;89.99;97638.38;5092694;28;20048;-60
2023/12/16 06:32:43;;;;;;;1999.90;999.90;;;;;;;0.44;89.04;97646.94;5092618;28;20470;-62
2023/12/16 06:35:11;;;;;;;1999.90;999.90;;;;;;;0.44;89.10;97646.06;5092671;28;20052;-62
2023/12/16 06:37:38;;;;;;;1999.90;999.90;;;;;;;0.43;88.66;97655.53;5092565;28;20052;-60
2023/12/16 06:40:07;;;;;;;1999.90;999.90;;;;;;;0.46;89.35;97657.28;5092491;28;20055;-60
2023/12/16 06:42:37;;;;;;;1999.90;999.90;;;;;;;0.43;89.20;97655.53;5092470;28;20048;-60
2023/12/16 06:45:06;;;;;;;1999.90;999.90;;;;;;;0.42;88.17;97661.47;5092569;28;20044;-60
2023/12/16 06:47:34;;;;;;;1999.90;999.90;;;;;;;0.44;89.28;97670.13;5092541;28;20084;-61
2023/12/16 06:50:02;;;;;;;1999.90;999.90;;;;;;;0.37;90.01;97668.25;5092429;28;20040;-62
2023/12/16 06:52:30;;;;;;;1999.90;999.90;;;;;;;0.37;90.22;97668.25;5092492;28;20055;-60
2023/12/16 06:54:57;;;;;;;1999.90;999.90;;;;;;;0.39;90.60;97686.31;5095200;28;20080;-62
2023/12/16 06:57:25;;;;;;;1999.90;999.90;;;;;;;0.41;89.96;97690.66;5095954;28;20452;-60
2023/12/16 06:59:53;;;;;;;1999.90;999.90;;;;;;;0.40;89.68;97694.06;5095829;28;20048;-60
2023/12/16 07:02:21;;;;;;;1999.90;999.90;;;;;;;0.41;89.11;97698.38;5096000;28;20052;-60
2023/12/16 07:04:48;;;;;;;1999.90;999.90;;;;;;;0.38;90.27;97706.03;5096010;28;20485;-62
2023/12/16 07:07:15;;;;;;;1999.90;999.90;;;;;;;0.38;89.36;97708.63;5095888;28;20059;-60
2023/12/16 07:09:42;;;;;;;1999.90;999.90;;;;;;;0.37;89.29;97709.47;5095794;28;20044;-59
2023/12/16 07:12:10;;;;;;;1999.90;999.90;;;;;;;0.42;89.78;97712.13;5095604;28;20506;-59
2023/12/16 07:14:38;;;;;;;1999.90;999.90;;;;;;;0.40;90.08;97719.81;5095652;28;20489;-61
2023/12/16 07:17:10;;;;;;;1999.90;999.90;;;;;;;0.44;90.26;97716.47;5095751;28;20048;-62
2023/12/16 07:19:40;;;;;;;1999.90;999.90;;;;;;;0.39;90.13;97724.94;5095586;28;20044;-62
2023/12/16 07:22:09;;;;;;;1999.90;999.90;;;;;;;0.40;89.71;97732.69;5095663;28;20052;-60
2023/12/16 07:24:35;;;;;;;1999.90;999.90;;;;;;;0.43;89.61;97729.31;5095509;28;20044;-60
2023/12/16 07:27:04;;;;;;;1999.90;999.90;;;;;;;0.45;90.13;97736.22;5095530;28;20047;-61
2023/12/16 07:29:35;;;;;;;1999.90;999.90;;;;;;;0.43;89.15;97731.88;5095239;28;21221;-60
2023/12/16 07:32:03;;;;;;;1999.90;999.90;;;;;;;0.46;89.00;97739.69;5095364;28;20048;-62
2023/12/16 07:34:31;;;;;;;1999.90;999.90;;;;;;;0.48;89.10;97745.75;5095304;28;20048;-62
2023/12/16 07:36:58;;;;;;;1999.90;999.90;;;;;;;0.53;89.47;97740.66;5095339;28;20052;-60
2023/12/16 07:39:26;;;;;;;1999.90;999.90;;;;;;;0.51;89.79;97738.06;5095228;28;20048;-60
2023/12/16 07:41:53;;;;;;;1999.90;999.90;;;;;;;0.58;88.83;97741.66;5095210;28;20047;-62
2023/12/16 07:44:21;;;;;;;1999.90;999.90;;;;;;;0.49;88.16;97745.75;5095195;28;20044;-62
2023/12/16 07:46:48;;;;;;;1999.90;999.90;;;;;;;0.44;88.27;97749.94;5095117;28;20052;-60
2023/12/16 07:49:19;;;;;;;1999.90;999.90;;;;;;;0.51;89.81;97756.09;5095004;28;20052;-61
2023/12/16 07:51:48;;;;;;;1999.90;999.90;;;;;;;0.55;89.33;97762.19;5094914;28;20077;-62
2023/12/16 07:54:16;;;;;;;1999.90;999.90;;;;;;;0.58;89.62;97765.72;5094939;28;20048;-60
2023/12/16 07:56:44;;;;;;;1999.90;999.90;;;;;;;0.55;89.28;97760.50;5094853;28;20044;-62
2023/12/16 07:59:11;;;;;;;1999.90;999.90;;;;;;;0.55;89.63;97757.03;5094721;28;20440;-60
2023/12/16 08:01:40;;;;;;;1999.90;999.90;;;;;;;0.55;90.19;97757.03;5094642;28;20387;-60
2023/12/16 08:04:08;;;;;;;1999.90;999.90;;;;;;;0.55;90.68;97765.66;5094817;28;20055;-62
2023/12/16 08:06:37;;;;;;;1999.90;999.90;;;;;;;0.53;90.43;97766.41;5094075;28;20078;-61
2023/12/16 08:09:08;;;;;;;1999.90;999.90;;;;;;;0.48;91.01;97774.06;5094585;28;20059;-60
2023/12/16 08:11:37;;;;;;;1999.90;999.90;;;;;;;0.51;91.50;97768.97;5094685;28;20048;-61
2023/12/16 08:14:06;;;;;;;1999.90;999.90;;;;;;;0.55;90.56;97770.78;5094087;28;20047;-62
2023/12/16 08:16:33;;;;;;;1999.90;999.90;;;;;;;0.50;89.33;97772.38;5094536;28;20097;-61
2023/12/16 08:19:01;;;;;;;1999.90;999.90;;;;;;;0.50;89.74;97773.25;5094535;28;20052;-60
2023/12/16 08:21:28;;;;;;;1999.90;999.90;;;;;;;0.52;90.69;97765.56;5094446;28;20519;-60
2023/12/16 08:23:57;;;;;;;1999.90;999.90;;;;;;;0.54;90.76;97771.59;5094444;28;20044;-62
2023/12/16 08:26:28;;;;;;;1999.90;999.90;;;;;;;0.59;90.46;97771.72;5094386;28;20109;-62
2023/12/16 08:29:00;;;;;;;1999.90;999.90;;;;;;;0.59;90.75;97770.00;5094282;28;20139;-60
2023/12/16 08:31:28;;;;;;;1999.90;999.90;;;;;;;0.65;90.36;97778.69;5093804;28;20055;-61
2023/12/16 08:33:58;;;;;;;1999.90;999.90;;;;;;;0.70;90.74;97779.69;5094129;28;20148;-62
2023/12/16 08:36:26;;;;;;;1999.90;999.90;;;;;;;0.66;90.18;97781.31;5094167;28;20044;-60
2023/12/16 08:38:53;;;;;;;1999.90;999.90;;;;;;;0.68;89.98;97784.78;5094013;28;20094;-62
2023/12/16 08:41:21;;;;;;;1999.90;999.90;;;;;;;0.68;89.52;97789.06;5094060;28;20052;-62
2023/12/16 08:43:48;;;;;;;1999.90;999.90;;;;;;;0.69;89.58;97783.09;5094054;28;20098;-62
2023/12/16 08:46:16;;;;;;;1999.90;999.90;;;;;;;0.67;89.66;97779.63;5094197;28;20110;-61
2023/12/16 08:48:43;;;;;;;1999.90;999.90;;;;;;;0.73;89.95;97784.91;5093960;28;20097;-61
2023/12/16 08:51:10;;;;;;;1999.90;999.90;;;;;;;0.74;89.48;97784.94;5093833;28;20048;-63
2023/12/16 08:53:38;;;;;;;1999.90;999.90;;;;;;;0.74;89.65;97784.06;5093707;28;20482;-60
2023/12/16 08:56:06;;;;;;;1999.90;999.90;;;;;;;0.79;88.60;97786.72;5093652;28;20562;-61
2023/12/16 08:58:33;;;;;;;1999.90;999.90;;;;;;;0.79;88.77;97779.88;5093868;28;20040;-62
2023/12/16 09:01:03;;;;;;;1999.90;999.90;;;;;;;0.82;88.82;97782.53;5093877;28;20074;-60
2023/12/16 09:03:30;;;;;;;1999.90;999.90;;;;;;;0.83;87.76;97780.78;5093750;28;20075;-62
2023/12/16 09:05:57;;;;;;;1999.90;999.90;;;;;;;0.81;88.80;97785.06;5093597;28;20044;-60
2023/12/16 09:08:24;;;;;;;1999.90;999.90;;;;;;;0.78;87.13;97785.84;5093458;28;20080;-62
2023/12/16 09:10:51;;;;;;;1999.90;999.90;;;;;;;0.77;88.09;97784.13;5093568;28;20048;-61
2023/12/16 09:13:19;;;;;;;1999.90;999.90;;;;;;;0.84;88.94;97773.09;5093569;28;20076;-61
2023/12/16 09:15:46;;;;;;;1999.90;999.90;;;;;;;0.88;87.69;97779.19;5093497;28;20055;-61
2023/12/16 09:18:16;;;;;;;1999.90;999.90;;;;;;;0.93;87.65;97782.72;5092452;28;20048;-61
2023/12/16 09:20:43;;;;;;;1999.90;999.90;;;;;;;0.87;87.23;97790.31;5093314;28;20067;-60
2023/12/16 09:23:10;;;;;;;1999.90;999.90;;;;;;;0.85;87.58;97779.13;5093330;28;20436;-62
2023/12/16 09:25:37;;;;;;;1999.90;999.90;;;;;;;0.90;86.88;97774.06;5093521;28;20101;-62
2023/12/16 09:28:04;;;;;;;1999.90;999.90;;;;;;;0.93;87.62;97776.72;5093392;28;20044;-61
2023/12/16 09:30:31;;;;;;;1999.90;999.90;;;;;;;0.99;86.90;97781.97;5093073;28;20048;-60
2023/12/16 09:32:59;;;;;;;1999.90;999.90;;;;;;;1.02;86.81;97776.88;5093189;28;20101;-62
2023/12/16 09:35:27;;;;;;;1999.90;999.90;;;;;;;0.96;86.91;97777.63;5093179;28;20051;-60
2023/12/16 09:37:55;;;;;;;1999.90;999.90;;;;;;;0.98;87.86;97769.94;5093228;28;20072;-62
2023/12/16 09:40:22;;;;;;;1999.90;999.90;;;;;;;0.95;86.33;97775.91;5093257;28;20087;-61
2023/12/16 09:42:52;;;;;;;1999.90;999.90;;;;;;;0.97;86.80;97769.06;5093111;28;20551;-62
2023/12/16 09:45:20;;;;;;;1999.90;999.90;;;;;;;0.91;85.08;97766.38;5093225;28;20048;-62
2023/12/16 09:47:50;;;;;;;1999.90;999.90;;;;;;;0.94;85.17;97779.31;5092934;28;20409;-61
2023/12/16 09:50:17;;;;;;;1999.90;999.90;;;;;;;0.98;85.04;97778.53;5092986;28;20091;-61
2023/12/16 09:52:46;;;;;;;1999.90;999.90;;;;;;;1.00;86.32;97778.56;5092864;28;20509;-61
2023/12/16 09:55:14;;;;;;;1999.90;999.90;;;;;;;1.02;86.45;97768.31;5092987;28;20048;-62
2023/12/16 09:57:43;;;;;;;1999.90;999.90;;;;;;;0.98;86.26;97770.81;5093051;28;20409;-61
2023/12/16 10:00:12;;;;;;;1999.90;999.90;;;;;;;0.96;86.58;97780.22;5093005;28;20494;-62
2023/12/16 10:02:40;;;;;;;1999.90;999.90;;;;;;;0.99;84.62;97775.13;5092908;28;20047;-62
2023/12/16 10:05:08;;;;;;;1999.90;999.90;;;;;;;1.08;85.70;97771.84;5093150;28;20134;-61
2023/12/16 10:07:36;;;;;;;1999.90;999.90;;;;;;;1.13;86.09;97764.22;5092969;28;20144;-60
2023/12/16 10:10:05;;;;;;;1999.90;999.90;;;;;;;1.16;86.06;97769.44;5092910;28;20090;-61
2023/12/16 10:12:35;;;;;;;1999.90;999.90;;;;;;;1.19;85.09;97777.22;5093004;28;20044;-61
2023/12/16 10:15:02;;;;;;;;;;;;;;;1.23;85.17;97779.00;5093219;28;20075;-63
2023/12/16 10:17:28;;;;;;;1999.90;999.90;;;;;;;1.17;84.67;97776.31;5092733;28;19966;-62
2023/12/16 10:19:55;;;;;;;1999.90;999.90;;;;;;;1.22;84.68;97773.81;5092718;28;20037;-62
2023/12/16 10:22:23;;;;;;;1999.90;999.90;;;;;;;1.32;83.55;97780.03;5092837;28;20091;-61
2023/12/16 10:24:51;;;;;;;1999.90;999.90;;;;;;;1.41;84.41;97781.94;5092721;28;20044;-60
2023/12/16 10:27:23;;;;;;;1999.90;999.90;;;;;;;1.47;83.88;97793.22;5092729;28;20045;-62
2023/12/16 10:29:52;;;;;;;1999.90;999.90;;;;;;;1.53;82.81;97789.88;5095203;28;20048;-60
2023/12/16 10:32:19;;;;;;;1999.90;999.90;;;;;;;1.55;82.71;97787.31;5096444;28;20139;-61
2023/12/16 10:34:46;;;;;;;1999.90;999.90;;;;;;;1.59;83.76;97789.97;5096412;28;20121;-62
2023/12/16 10:37:14;;;;;;;1999.90;999.90;;;;;;;1.64;82.42;97793.53;5096384;28;20094;-62
2023/12/16 10:39:41;;;;;;;1999.90;999.90;;;;;;;1.66;81.91;97798.72;5096346;28;20387;-61
2023/12/16 10:42:08;;;;;;;1999.90;999.90;;;;;;;1.62;80.81;97797.78;5096344;28;20052;-60
2023/12/16 10:44:39;;;;;;;1999.90;999.90;;;;;;;1.68;82.59;97791.00;5096221;28;20052;-63
2023/12/16 10:47:10;;;;;;;1999.90;999.90;;;;;;;1.65;81.21;97794.38;5096228;28;20083;-62
2023/12/16 10:49:43;;;;;;;1999.90;999.90;;;;;;;1.62;79.20;97787.47;5096069;28;20055;-62
2023/12/16 10:52:13;;;;;;;1999.90;999.90;;;;;;;1.62;80.46;97789.16;5096219;28;20044;-61
2023/12/16 10:54:41;;;;;;;1999.90;999.90;;;;;;;1.63;80.81;97791.75;5096177;28;20040;-62
2023/12/16 10:57:22;;;;;;;1999.90;999.90;;;;;;;1.72;80.91;97785.06;5096145;28;20052;-62
2023/12/16 10:59:59;;;;;;;1999.90;999.90;;;;;;;1.81;82.38;97784.34;5096004;28;20048;-62
2023/12/16 11:02:28;;;;;;;1999.90;999.90;;;;;;;1.92;82.12;97790.53;5096095;28;20085;-61
2023/12/16 11:05:07;;;;;;;1999.90;999.90;;;;;;;1.99;80.88;97794.94;5096021;28;20440;-62
2023/12/16 11:07:39;;;;;;;1999.90;999.90;;;;;;;1.99;78.83;97782.03;5095733;28;20044;-60